Skip Navigation Links www.nws.noaa.gov 
NOAA logo - Click to go to the NOAA homepage National Weather Service   NWS logo - Click to go to the NWS homepage
NCEP Central Operations
Search 
   

Local forecast by
"City, St"

Search NCO
NCEP Home > NCEP Central Operations > Data Management and Quality Assessment Branch > Quality Assessment Project > Raob Data Manual Quality Control Reports > Mexican Raob Data Manual Quality Control Reports

Latest Mexican Raob Data Manual Quality Control Report Printer image icon. Printer Friendly Version

Latest Mexican Raob Data Manual Quality Control Report

Previous Mexican Raob Data Manual Quality Control Reports


                RAOB DATA MANUAL QUALITY CONTROL (QC) REPORT
                                  MEXICAN
                       From 20161001 through 20161031

 ___DATE___ HOUR REASN DETAILS...

76225/CUU
   20161004  12Z 10156 10156
   20161005  12Z 10156 10156

2 records found

76256/GYM
   20161003  12Z DELET Purged all temps...too warm
   20161004  12Z DELET Short to 622 mb...purged all data above 925 mb...
                 SHORT increasingly spurious values with height
   20161007  12Z DELET Purge hts/temps/humidity All high/warm..
   20161009  12Z 10158 10158; Flight equip problems..
   20161010  12Z 10158 10158; FLIGHT EQUIP PROBLEMS.
   20161011  12Z 10158 10158; FLIGHT EQUIP PROBLEMS.
   20161012  12Z 10158 10158; FLIGHT EQUIP PROBLEMS.
   20161013  12Z 10158 10158
   20161014  00Z 10158 10158; FLIGHT EQUIP PROBLEMS.
   20161014  12Z 10158 10158...flight equipment failure
   20161015  12Z 10158 10158
   20161016  12Z 10158 10158
   20161017  12Z 10158 10158.
   20161018  12Z 10158 10158.
   20161019  12Z 10158 10158
   20161020  12Z 10158 10158...flight equipment failure
   20161021  12Z 10158 10158...Flight equipment failure.
   20161022  12Z 10158 10158
   20161024  12Z 10158 10158...Flight equipment failure
   20161025  12Z 10158 10158...Flight equipment failure
   20161026  12Z 10158 10158; Flight equip problems..
   20161027  12Z 10158 10158
   20161031  12Z 10158 10158; Flight equip problems..

23 records found

76394/MTY
   20161004  12Z 10158 10158
   20161006  12Z DELET Purge hts/temps/humidity 500mb up cold and warm..

2 records found

76405/LAP
   20161001  12Z 10158 10158...Flight equipment failure
   20161002  12Z 10158 10158...Flight equipment failure
   20161003  12Z 10158 10158
   20161004  12Z 10158 10158
   20161005  12Z 10158 10158
   20161006  12Z 10158 10158; Flight equip problems
   20161008  12Z 10158 10158; Flight equip problem..
   20161009  12Z 10158 10158; Flight equip problems..
   20161010  12Z 10158 10158; FLIGHT EQUIP PROBLEMS.
   20161011  12Z 10158 10158; FLIGHT EQUIP PROBLEMS.
   20161012  12Z 10158 10158; FLIGHT EQUIP PROBLEMS.
   20161013  12Z 10158 10158
   20161014  00Z 10158 10158; FLIGHT EQUIP PROBLEMS.
   20161014  12Z 10158 10158...flight equipment failure
   20161015  12Z 10158 10158
   20161016  12Z 10158 10158
   20161017  12Z 10158 10158.
   20161018  12Z 10158 10158.
   20161019  12Z 10158 10158
   20161020  12Z 10158 10158...flight equipment failure
   20161021  12Z 10158 10158...Flight equipment failure.
   20161022  12Z 10158 10158
   20161023  12Z 10158 10158
   20161024  12Z 10158 10158...Flight equipment failure
   20161025  12Z 10158 10158...Flight equipment failure
   20161026  12Z 10158 10158; Flight equip problems..
   20161027  12Z 10158 10158
   20161029  12Z 10158 10158
   20161030  12Z 10158 10158
   20161031  12Z 10158 10158; Flight equip problem..

30 records found

76458/MZT
   20161020  12Z DELET Purged temp/rh 124-119 mb...super-adiabatic
   20161027  00Z DELET Purged temps/moisture 101-97 mb...super-adiabatic
                       lapse rate
   20161027  12Z 10142 10142

3 records found

76526/ZAC
   20161023  12Z 10144 10144
   20161026  12Z 10144 10144; Power failure..

2 records found

76595/CUN
   20161013  12Z DELET Purged temps 695-686 mb...wet bulb effect
   20161017  12Z 10142 10142.

2 records found

76612/GDL
   20161006  12Z 10158 10158; Flight equip problems
   20161024  00Z SHORT Short to 554 mb

2 records found

76644/MID
   20161030  12Z DELET Purged winds 1013-1011mb...too strong

1 record found

76654/MZL
   20161001  00Z 10158 10158; Flight equip problems..
   20161002  00Z 10158 10158
   20161003  00Z 10158 10158
   20161004  00Z 10158 10158.
   20161005  00Z 10158 10158.
   20161006  00Z 10158 10158.
   20161006  12Z SHORT Short to 1005mb
   20161007  00Z 10158 10158
   20161008  00Z 10158 10158
   20161009  00Z 10158 10158...Flight equipment failure
   20161010  00Z 10158 10158...Flight equipment failure
   20161011  00Z 10158 10158
   20161012  00Z 10158 10158
   20161013  00Z 10158 10158
   20161015  00Z 10158 10158.
   20161016  00Z 10158 10158; flight equip problem..
   20161017  00Z 10158 10158; Flight equip problem..
   20161019  12Z 10158 10158
   20161021  00Z 10158 10158
   20161023  00Z 10158 10158
   20161024  00Z 10158 10158
   20161025  00Z 10158 10158; Flight equip problems..
   20161025  12Z DELET Purged all hgts/temps...portions high/warm
   20161027  00Z 10158 10158...Flight equipment failure
   20161028  00Z 10158 10158...Flight equipment failure
   20161030  00Z 10158 10158...Flight equipment failure.
   20161030  12Z DELET Purged all hgts/temps...high/warm
   20161031  00Z 10158 10158...FLIGHT EQUIPMENT FAILURE.

28 records found

76679/MEX
   20161001  00Z DELET Purge temps and humidity 776 to 680mb and 554 to 
                       391mb..wet bulb effect..
   20161001  12Z DELET Purged all hgts/temps...low/cold
   20161007  00Z DELET Purged spurious temps above 415 mb
   20161007  12Z DELET Purge hts/temps/humidity 400mb up high/warm..
   20161012  00Z DELET Purged all hgts/temps
   20161013  00Z DELET Purged all hgts/temps...low/cold
   20161016  00Z DELET Purge temps/humidity 774 to 523mb..Super adiabatic 
                       lapse rate..
   20161017  00Z DELET Purge temps/humidity 773 to 497mb super adiabatic 
                       lapse rate..
   20161020  00Z DELET Purged all hgts/temps...spurious
   20161029  12Z DELET Purged temps/moisture 662-648mb...wet bulb effect

10 records found



76692/HYY
   20161001  00Z 10158 10158; Flight equip problems..
   20161002  00Z 10158 10158
   20161003  00Z 10158 10158
   20161004  00Z 10158 10158.
   20161005  00Z 10158 10158.
   20161006  00Z 10158 10158.
   20161008  00Z 10158 10158
   20161009  00Z 10158 10158...Flight equipment failure
   20161009  12Z DELET Purge hts/temps/humidity 200mb up high and warm
   20161010  00Z 10158 10158...Flight equipment failure
   20161011  00Z 10158 10158
   20161012  00Z 10158 10158
   20161013  00Z 10158 10158
   20161015  00Z 10158 10158.
   20161016  00Z 10158 10158; flight equip problem..
   20161017  00Z 10158 10158; Flight equip problem..
   20161019  00Z 10158 10158...Flight equipment failure
   20161020  00Z 10158 10158...Flight equipment failure
   20161021  00Z 10158 10158
   20161023  00Z 10158 10158
   20161024  12Z DELET Purged temps/moisture 737-727 mb, 623-558 mb...wet 
                       bulb effect
   20161025  00Z 10158 10158; Flight equip problems..
   20161025  12Z DELET Purged temps/moisture 865-863 mb, 831-829 mb, 
                       667-600 mb...super-adiabatic lapse rate
   20161026  00Z 10158 10158; Flight equip problem..
   20161027  00Z 10158 10158...Flight equipment failure
   20161028  00Z 10158 10158...Flight equipment failure
   20161029  00Z 10158 10158...Flight equipment failure
   20161030  00Z 10158 10158...Flight equipment failure.
   20161031  00Z 10158 10158...FLIGHT EQUIPMENT FAILURE.

29 records found

76805/ACA
   20161006  12Z SHORT Short to 554mb
   20161020  00Z DELET Purged temps/moisture 152-107 mb...wet bulb effect

2 records found



SELECTED STATIONS WITH NO SDM QC:
  76743/VHA  76903/TAP




This and related reports are available on the Web at . . .
http://www.nco.ncep.noaa.gov/sib/qap/raobqc/


  

NOAA/ National Weather Service
National Centers for Environmental Prediction
NCEP Central Operations
5830 University Research Court
College Park, MD 20740
NCO Web Team
Disclaimer Privacy Policy
Page last modified: Tuesday, 14-Sep-2004 17:34:26 UTC